RYR5482 LEPA-LEVC
Flight info
| Callsign | RYR5482 |
|---|---|
| Flight time | 0h 31m |
| Altitude | 23000 |
| Route | EPAMA N733 ARGOR |
| Aircraft | B738/M-SDE2E3FGHIRWXY/LB1 |
Departure
| Time | 2026-05-06 06:09 |
|---|---|
| Airport | Palma de Mallorca Airport (LEPA) |
Arrival
| Time | 2026-05-06 06:40 |
|---|---|
| Airport | Valencia Airport (LEVC) |
| Time | Latitude | Longitude | Altitude | Speed | Heading |
|---|---|---|---|---|---|
| 2026-05-06 05:54 | 39.55041 | 2.73534 | 25 ft | 0 kts | 171° |
| 2026-05-06 06:02 | 39.55059 | 2.73530 | 28 ft | 4 kts | 157° |
| 2026-05-06 06:03 | 39.55079 | 2.73511 | 28 ft | 4 kts | 112° |
| 2026-05-06 06:03 | 39.55079 | 2.73487 | 29 ft | 1 kts | 59° |
| 2026-05-06 06:03 | 39.55077 | 2.73482 | 28 ft | 1 kts | 59° |
| 2026-05-06 06:04 | 39.55077 | 2.73483 | 28 ft | 0 kts | 59° |
| 2026-05-06 06:05 | 39.55082 | 2.73494 | 27 ft | 5 kts | 59° |
| 2026-05-06 06:06 | 39.55117 | 2.73571 | 25 ft | 14 kts | 59° |
| 2026-05-06 06:06 | 39.55185 | 2.73658 | 23 ft | 13 kts | 341° |
| 2026-05-06 06:06 | 39.55292 | 2.73581 | 21 ft | 22 kts | 330° |
| 2026-05-06 06:06 | 39.55441 | 2.73506 | 20 ft | 22 kts | 19° |
| 2026-05-06 06:07 | 39.55578 | 2.73531 | 20 ft | 22 kts | 329° |
| 2026-05-06 06:07 | 39.55695 | 2.73598 | 18 ft | 21 kts | 57° |
| 2026-05-06 06:07 | 39.55773 | 2.73753 | 17 ft | 20 kts | 57° |
| 2026-05-06 06:07 | 39.55856 | 2.73891 | 17 ft | 20 kts | 19° |
| 2026-05-06 06:08 | 39.55975 | 2.73822 | 16 ft | 19 kts | 314° |
| 2026-05-06 06:08 | 39.55928 | 2.73634 | 15 ft | 52 kts | 239° |
| 2026-05-06 06:08 | 39.55568 | 2.72876 | 20 ft | 142 kts | 238° |
| 2026-05-06 06:08 | 39.54958 | 2.71592 | 548 ft | 177 kts | 238° |
| 2026-05-06 06:09 | 39.54288 | 2.70239 | 1783 ft | 175 kts | 237° |
| 2026-05-06 06:09 | 39.53644 | 2.68963 | 3023 ft | 168 kts | 238° |
| 2026-05-06 06:09 | 39.52990 | 2.67668 | 3726 ft | 186 kts | 238° |
| 2026-05-06 06:09 | 39.52222 | 2.66148 | 4105 ft | 214 kts | 237° |
| 2026-05-06 06:10 | 39.51392 | 2.64510 | 4772 ft | 220 kts | 237° |
| 2026-05-06 06:10 | 39.50549 | 2.62849 | 5563 ft | 221 kts | 237° |
| 2026-05-06 06:10 | 39.49700 | 2.61177 | 6419 ft | 223 kts | 237° |
| 2026-05-06 06:10 | 39.48849 | 2.59503 | 7394 ft | 220 kts | 237° |
| 2026-05-06 06:11 | 39.48007 | 2.57849 | 8347 ft | 220 kts | 237° |
| 2026-05-06 06:11 | 39.47163 | 2.56190 | 9277 ft | 221 kts | 238° |
| 2026-05-06 06:11 | 39.46313 | 2.54522 | 10185 ft | 222 kts | 238° |
| 2026-05-06 06:11 | 39.45471 | 2.52852 | 11032 ft | 222 kts | 242° |
| 2026-05-06 06:12 | 39.45044 | 2.50872 | 11481 ft | 244 kts | 267° |
| 2026-05-06 06:12 | 39.45229 | 2.48556 | 11720 ft | 274 kts | 277° |
| 2026-05-06 06:12 | 39.45579 | 2.46007 | 11943 ft | 301 kts | 278° |
| 2026-05-06 06:12 | 39.45984 | 2.43239 | 12311 ft | 321 kts | 278° |
| 2026-05-06 06:13 | 39.46408 | 2.40366 | 13120 ft | 326 kts | 278° |
| 2026-05-06 06:13 | 39.46827 | 2.37506 | 14022 ft | 328 kts | 278° |
| 2026-05-06 06:13 | 39.47248 | 2.34588 | 14808 ft | 331 kts | 278° |
| 2026-05-06 06:13 | 39.47668 | 2.31634 | 15545 ft | 336 kts | 277° |
| 2026-05-06 06:14 | 39.48092 | 2.28626 | 16289 ft | 340 kts | 277° |
| 2026-05-06 06:14 | 39.48510 | 2.25633 | 17030 ft | 344 kts | 277° |
| 2026-05-06 06:14 | 39.48935 | 2.22575 | 17874 ft | 345 kts | 277° |
| 2026-05-06 06:14 | 39.49359 | 2.19517 | 18782 ft | 342 kts | 277° |
| 2026-05-06 06:15 | 39.49775 | 2.16513 | 19668 ft | 338 kts | 277° |
| 2026-05-06 06:15 | 39.50187 | 2.13524 | 20509 ft | 336 kts | 277° |
| 2026-05-06 06:15 | 39.50596 | 2.10548 | 21343 ft | 335 kts | 277° |
| 2026-05-06 06:15 | 39.51001 | 2.07588 | 22193 ft | 333 kts | 277° |
| 2026-05-06 06:16 | 39.51406 | 2.04626 | 22725 ft | 334 kts | 276° |
| 2026-05-06 06:16 | 39.51809 | 2.01675 | 22948 ft | 332 kts | 276° |
| 2026-05-06 06:16 | 39.52210 | 1.98725 | 22951 ft | 333 kts | 276° |
| 2026-05-06 06:16 | 39.52611 | 1.95766 | 22952 ft | 333 kts | 276° |
| 2026-05-06 06:17 | 39.53011 | 1.92817 | 22959 ft | 332 kts | 276° |
| 2026-05-06 06:17 | 39.53411 | 1.89862 | 22955 ft | 332 kts | 276° |
| 2026-05-06 06:17 | 39.53807 | 1.86923 | 22970 ft | 343 kts | 276° |
| 2026-05-06 06:17 | 39.54223 | 1.83805 | 22966 ft | 360 kts | 276° |
| 2026-05-06 06:18 | 39.54659 | 1.80544 | 22967 ft | 375 kts | 277° |
| 2026-05-06 06:18 | 39.55113 | 1.77151 | 22974 ft | 389 kts | 277° |
| 2026-05-06 06:18 | 39.55583 | 1.73635 | 22970 ft | 401 kts | 277° |
| 2026-05-06 06:18 | 39.56067 | 1.70021 | 22969 ft | 412 kts | 277° |
| 2026-05-06 06:19 | 39.56562 | 1.66315 | 22965 ft | 422 kts | 277° |
| 2026-05-06 06:19 | 39.57065 | 1.62537 | 22964 ft | 430 kts | 277° |
| 2026-05-06 06:19 | 39.57578 | 1.58677 | 22957 ft | 436 kts | 277° |
| 2026-05-06 06:19 | 39.58091 | 1.54814 | 22939 ft | 435 kts | 277° |
| 2026-05-06 06:20 | 39.58601 | 1.50957 | 22952 ft | 434 kts | 277° |
| 2026-05-06 06:20 | 39.59110 | 1.47098 | 22950 ft | 433 kts | 277° |
| 2026-05-06 06:20 | 39.59615 | 1.43254 | 22951 ft | 432 kts | 277° |
| 2026-05-06 06:20 | 39.60110 | 1.39457 | 22954 ft | 431 kts | 276° |
| 2026-05-06 06:21 | 39.60322 | 1.35558 | 22957 ft | 427 kts | 266° |
| 2026-05-06 06:21 | 39.60122 | 1.31764 | 22953 ft | 426 kts | 263° |
| 2026-05-06 06:21 | 39.59863 | 1.27945 | 22952 ft | 425 kts | 263° |
| 2026-05-06 06:21 | 39.59602 | 1.24155 | 22941 ft | 420 kts | 263° |
| 2026-05-06 06:22 | 39.59355 | 1.20391 | 22953 ft | 419 kts | 263° |
| 2026-05-06 06:22 | 39.59120 | 1.16613 | 22966 ft | 421 kts | 264° |
| 2026-05-06 06:22 | 39.58896 | 1.12849 | 22777 ft | 414 kts | 264° |
| 2026-05-06 06:22 | 39.58683 | 1.09167 | 22214 ft | 404 kts | 264° |
| 2026-05-06 06:23 | 39.58477 | 1.05557 | 21565 ft | 397 kts | 264° |
| 2026-05-06 06:23 | 39.58274 | 1.02010 | 20871 ft | 392 kts | 264° |
| 2026-05-06 06:23 | 39.58070 | 0.98493 | 20161 ft | 389 kts | 264° |
| 2026-05-06 06:23 | 39.57868 | 0.95014 | 19469 ft | 385 kts | 264° |
| 2026-05-06 06:24 | 39.57666 | 0.91564 | 18783 ft | 382 kts | 264° |
| 2026-05-06 06:24 | 39.57464 | 0.88130 | 18072 ft | 380 kts | 264° |
| 2026-05-06 06:24 | 39.57265 | 0.84761 | 17312 ft | 378 kts | 264° |
| 2026-05-06 06:24 | 39.57063 | 0.81374 | 16589 ft | 374 kts | 264° |
| 2026-05-06 06:25 | 39.56864 | 0.78027 | 15904 ft | 371 kts | 264° |
| 2026-05-06 06:25 | 39.56665 | 0.74714 | 15219 ft | 367 kts | 264° |
| 2026-05-06 06:25 | 39.56270 | 0.68161 | 13915 ft | 361 kts | 264° |
| 2026-05-06 06:26 | 39.56076 | 0.64973 | 13208 ft | 358 kts | 264° |
| 2026-05-06 06:26 | 39.55880 | 0.61768 | 12535 ft | 355 kts | 264° |
| 2026-05-06 06:26 | 39.55685 | 0.58590 | 11900 ft | 351 kts | 264° |
| 2026-05-06 06:26 | 39.55491 | 0.55424 | 11245 ft | 349 kts | 264° |
| 2026-05-06 06:27 | 39.55301 | 0.52328 | 11015 ft | 336 kts | 264° |
| 2026-05-06 06:27 | 39.55119 | 0.49367 | 10858 ft | 326 kts | 264° |
| 2026-05-06 06:27 | 39.54942 | 0.46507 | 10719 ft | 317 kts | 264° |
| 2026-05-06 06:27 | 39.54767 | 0.43685 | 10588 ft | 311 kts | 264° |
| 2026-05-06 06:28 | 39.54652 | 0.41849 | 10498 ft | 304 kts | 264° |
| 2026-05-06 06:28 | 39.54485 | 0.39167 | 10368 ft | 293 kts | 264° |
| 2026-05-06 06:28 | 39.54323 | 0.36576 | 10245 ft | 283 kts | 264° |
| 2026-05-06 06:28 | 39.54166 | 0.34081 | 10132 ft | 273 kts | 264° |
| 2026-05-06 06:29 | 39.54013 | 0.31671 | 10018 ft | 264 kts | 264° |
| 2026-05-06 06:29 | 39.53789 | 0.29349 | 9821 ft | 258 kts | 255° |
| 2026-05-06 06:29 | 39.53242 | 0.27145 | 9549 ft | 256 kts | 250° |
| 2026-05-06 06:29 | 39.52600 | 0.24983 | 9255 ft | 258 kts | 249° |
| 2026-05-06 06:30 | 39.51941 | 0.22813 | 8954 ft | 259 kts | 249° |
| 2026-05-06 06:30 | 39.51294 | 0.20669 | 8668 ft | 258 kts | 249° |
| 2026-05-06 06:30 | 39.50649 | 0.18503 | 8372 ft | 258 kts | 249° |
| 2026-05-06 06:30 | 39.50009 | 0.16338 | 8080 ft | 257 kts | 249° |
| 2026-05-06 06:31 | 39.49374 | 0.14175 | 7795 ft | 257 kts | 249° |
| 2026-05-06 06:31 | 39.48741 | 0.12011 | 7508 ft | 257 kts | 250° |
| 2026-05-06 06:31 | 39.48109 | 0.09845 | 7221 ft | 257 kts | 250° |
| 2026-05-06 06:31 | 39.47479 | 0.07682 | 6928 ft | 257 kts | 250° |
| 2026-05-06 06:32 | 39.46849 | 0.05516 | 6642 ft | 257 kts | 250° |
| 2026-05-06 06:32 | 39.46218 | 0.03349 | 6357 ft | 257 kts | 250° |
| 2026-05-06 06:32 | 39.45586 | 0.01176 | 6044 ft | 258 kts | 250° |
| 2026-05-06 06:32 | 39.44962 | -0.00968 | 5737 ft | 257 kts | 250° |
| 2026-05-06 06:33 | 39.44330 | -0.03136 | 5451 ft | 258 kts | 250° |
| 2026-05-06 06:33 | 39.43698 | -0.05303 | 5173 ft | 257 kts | 250° |
| 2026-05-06 06:33 | 39.43066 | -0.07472 | 4888 ft | 257 kts | 250° |
| 2026-05-06 06:33 | 39.42435 | -0.09635 | 4602 ft | 257 kts | 249° |
| 2026-05-06 06:34 | 39.41801 | -0.11806 | 4294 ft | 258 kts | 249° |
| 2026-05-06 06:34 | 39.41167 | -0.13973 | 4019 ft | 257 kts | 249° |
| 2026-05-06 06:34 | 39.40545 | -0.16096 | 3940 ft | 248 kts | 249° |
| 2026-05-06 06:34 | 39.39948 | -0.18125 | 3882 ft | 234 kts | 248° |
| 2026-05-06 06:35 | 39.39291 | -0.19981 | 3785 ft | 220 kts | 250° |
| 2026-05-06 06:35 | 39.39235 | -0.21822 | 3661 ft | 204 kts | 288° |
| 2026-05-06 06:35 | 39.39716 | -0.23496 | 3560 ft | 197 kts | 292° |
| 2026-05-06 06:35 | 39.40243 | -0.25109 | 3502 ft | 195 kts | 295° |
| 2026-05-06 06:36 | 39.40816 | -0.26690 | 3489 ft | 194 kts | 296° |
| 2026-05-06 06:36 | 39.41409 | -0.28275 | 3339 ft | 198 kts | 297° |
| 2026-05-06 06:36 | 39.42015 | -0.29881 | 3088 ft | 198 kts | 297° |
| 2026-05-06 06:36 | 39.42605 | -0.31446 | 2869 ft | 190 kts | 297° |
| 2026-05-06 06:37 | 39.43186 | -0.32986 | 2601 ft | 194 kts | 297° |
| 2026-05-06 06:37 | 39.43775 | -0.34544 | 2298 ft | 189 kts | 297° |
| 2026-05-06 06:37 | 39.44337 | -0.36025 | 2083 ft | 174 kts | 296° |
| 2026-05-06 06:37 | 39.44847 | -0.37377 | 1835 ft | 162 kts | 296° |
| 2026-05-06 06:38 | 39.45332 | -0.38663 | 1633 ft | 158 kts | 296° |
| 2026-05-06 06:38 | 39.45811 | -0.39934 | 1420 ft | 156 kts | 296° |
| 2026-05-06 06:38 | 39.46277 | -0.41185 | 1193 ft | 156 kts | 296° |
| 2026-05-06 06:38 | 39.46757 | -0.42437 | 984 ft | 154 kts | 297° |
| 2026-05-06 06:39 | 39.47231 | -0.43680 | 752 ft | 154 kts | 296° |
| 2026-05-06 06:39 | 39.47691 | -0.44920 | 534 ft | 151 kts | 296° |
| 2026-05-06 06:39 | 39.48156 | -0.46127 | 355 ft | 148 kts | 297° |
| 2026-05-06 06:39 | 39.48604 | -0.47300 | 198 ft | 140 kts | 296° |
| 2026-05-06 06:40 | 39.48972 | -0.48265 | 210 ft | 98 kts | 296° |
| 2026-05-06 06:40 | 39.49215 | -0.48903 | 226 ft | 62 kts | 296° |
| 2026-05-06 06:40 | 39.49315 | -0.49122 | 229 ft | 23 kts | 309° |
| 2026-05-06 06:40 | 39.49435 | -0.49256 | 230 ft | 22 kts | 322° |
| 2026-05-06 06:41 | 39.49538 | -0.49282 | 231 ft | 16 kts | 67° |
| 2026-05-06 06:41 | 39.49511 | -0.49152 | 228 ft | 15 kts | 116° |
| 2026-05-06 06:41 | 39.49464 | -0.49032 | 229 ft | 16 kts | 117° |
| 2026-05-06 06:41 | 39.49411 | -0.48888 | 226 ft | 20 kts | 115° |
| 2026-05-06 06:42 | 39.49344 | -0.48709 | 224 ft | 24 kts | 116° |
| 2026-05-06 06:42 | 39.49268 | -0.48511 | 220 ft | 26 kts | 117° |
| 2026-05-06 06:42 | 39.49179 | -0.48292 | 213 ft | 28 kts | 120° |
| 2026-05-06 06:42 | 39.49089 | -0.48064 | 207 ft | 28 kts | 115° |
| 2026-05-06 06:43 | 39.49033 | -0.47838 | 213 ft | 26 kts | 89° |
| 2026-05-06 06:43 | 39.49044 | -0.47618 | 206 ft | 24 kts | 110° |
| 2026-05-06 06:43 | 39.48981 | -0.47426 | 201 ft | 23 kts | 116° |
| 2026-05-06 06:43 | 39.48957 | -0.47362 | 199 ft | 2 kts | 117° |
| 2026-05-06 06:44 | 39.49016 | -0.47225 | 203 ft | 0 kts | 17° |